createdAt,value
2019-02-26T00:01:50.727Z,40.03
2019-02-26T00:04:41.596Z,41.43
2019-02-26T00:07:33.079Z,51.47
2019-02-26T00:10:26.674Z,52.37
2019-02-26T00:13:18.577Z,44.47
2019-02-26T00:16:10.571Z,48.07
2019-02-26T00:19:05.078Z,45.23
2019-02-26T00:21:56.729Z,56.00
2019-02-26T00:24:48.138Z,48.50
2019-02-26T00:27:40.362Z,47.23
2019-02-26T00:30:33.476Z,48.53
2019-02-26T00:33:27.271Z,56.43
2019-02-26T00:36:19.105Z,46.90
2019-02-26T00:39:10.544Z,42.97
2019-02-26T00:42:02.717Z,44.53
2019-02-26T00:44:55.916Z,45.63
2019-02-26T00:47:48.458Z,43.90
2019-02-26T00:50:39.925Z,40.67
2019-02-26T00:53:33.071Z,44.47
2019-02-26T00:56:25.314Z,52.97
2019-02-26T00:59:19.025Z,45.30
2019-02-26T01:02:10.631Z,44.47
2019-02-26T01:05:04.106Z,52.73
2019-02-26T01:07:55.465Z,43.53
2019-02-26T01:10:47.094Z,44.80
2019-02-26T01:13:38.733Z,43.13
2019-02-26T01:16:30.350Z,47.33
2019-02-26T01:19:22.275Z,61.53
2019-02-26T01:22:13.830Z,47.33
2019-02-26T01:25:05.992Z,42.07
2019-02-26T01:28:00.275Z,45.30
2019-02-26T01:30:55.562Z,46.63
2019-02-26T01:33:46.384Z,50.67
2019-02-26T01:36:38.304Z,46.67
2019-02-26T01:39:30.916Z,44.50
2019-02-26T01:42:24.750Z,49.73
2019-02-26T01:45:15.536Z,56.90
2019-02-26T01:48:09.235Z,68.77
2019-02-26T01:51:01.170Z,55.17
2019-02-26T01:53:54.204Z,44.90
2019-02-26T01:56:45.784Z,48.07
2019-02-26T01:59:37.256Z,44.20
2019-02-26T02:02:30.306Z,40.60
2019-02-26T02:05:23.855Z,46.97
2019-02-26T02:08:15.998Z,45.80
2019-02-26T02:11:09.394Z,47.20
2019-02-26T02:14:02.069Z,59.90
2019-02-26T02:16:55.399Z,42.93
2019-02-26T02:19:46.988Z,36.10
2019-02-26T02:22:40.007Z,52.83
2019-02-26T02:25:35.273Z,47.63
2019-02-26T02:28:26.223Z,44.67
2019-02-26T02:31:17.781Z,47.17
2019-02-26T02:34:09.103Z,38.23
2019-02-26T02:37:00.721Z,38.50
2019-02-26T02:39:53.447Z,33.40
2019-02-26T02:42:48.403Z,41.83
2019-02-26T02:45:38.009Z,45.07
2019-02-26T02:48:29.512Z,47.73
2019-02-26T02:51:21.323Z,40.53
2019-02-26T02:54:15.346Z,40.00
2019-02-26T02:57:09.431Z,46.83
2019-02-26T02:59:59.687Z,48.37
2019-02-26T03:02:53.124Z,42.57
2019-02-26T03:05:45.899Z,43.40
2019-02-26T03:08:39.443Z,46.37
2019-02-26T03:11:36.063Z,50.87
2019-02-26T03:14:24.311Z,59.23
2019-02-26T03:17:19.146Z,47.87
2019-02-26T03:20:10.160Z,51.23
2019-02-26T03:23:04.050Z,44.70
2019-02-26T03:25:56.041Z,54.07
2019-02-26T03:28:49.076Z,47.97
2019-02-26T03:31:46.213Z,37.33
2019-02-26T03:34:34.395Z,34.60
2019-02-26T03:37:28.574Z,38.83
2019-02-26T03:40:20.957Z,33.83
2019-02-26T03:43:13.243Z,32.00
2019-02-26T03:46:05.437Z,37.57
2019-02-26T03:49:02.482Z,29.57
2019-02-26T03:51:52.016Z,32.87
2019-02-26T03:54:45.392Z,44.73
2019-02-26T03:57:41.095Z,47.93
2019-02-26T04:00:32.443Z,53.93
2019-02-26T04:03:24.043Z,49.43
2019-02-26T04:06:15.839Z,50.93
2019-02-26T04:09:09.164Z,51.77
2019-02-26T04:12:02.124Z,46.30
2019-02-26T04:14:53.756Z,50.77
2019-02-26T04:17:45.632Z,43.93
2019-02-26T04:20:37.392Z,44.00
2019-02-26T04:23:29.266Z,53.37
2019-02-26T04:27:06.702Z,43.10
2019-02-26T04:31:03.332Z,48.87
2019-02-26T04:34:33.579Z,52.07
2019-02-26T04:38:13.850Z,47.43
2019-02-26T04:41:43.313Z,48.43
2019-02-26T04:45:47.402Z,41.53
2019-02-26T04:48:40.986Z,46.87
2019-02-26T04:51:35.847Z,44.00
2019-02-26T04:54:27.186Z,47.87
2019-02-26T04:57:18.792Z,46.00
2019-02-26T05:00:11.111Z,47.23
2019-02-26T05:03:04.918Z,40.43
2019-02-26T05:05:57.274Z,43.97
2019-02-26T05:08:49.231Z,50.27
2019-02-26T05:11:40.901Z,43.23
2019-02-26T05:14:32.317Z,51.30
2019-02-26T05:17:27.246Z,46.77
2019-02-26T05:20:18.970Z,44.53
2019-02-26T05:23:10.761Z,43.80
2019-02-26T05:26:05.165Z,40.87
2019-02-26T05:28:55.328Z,45.17
2019-02-26T05:31:46.914Z,48.63
2019-02-26T05:34:39.900Z,44.67
2019-02-26T05:37:34.498Z,39.83
2019-02-26T05:40:24.779Z,48.23
2019-02-26T05:43:16.620Z,40.33
2019-02-26T05:46:08.449Z,42.27
2019-02-26T05:49:02.909Z,52.97
2019-02-26T05:51:56.859Z,48.50
2019-02-26T05:54:47.241Z,46.73
2019-02-26T05:57:38.859Z,51.97
2019-02-26T06:00:33.068Z,49.30
2019-02-26T06:03:23.376Z,54.33
2019-02-26T06:06:15.103Z,49.83
2019-02-26T06:09:07.944Z,51.17
2019-02-26T06:11:59.441Z,51.23
2019-02-26T06:14:51.516Z,55.67
2019-02-26T06:17:45.711Z,51.17
2019-02-26T06:20:36.733Z,46.47
2019-02-26T06:23:31.102Z,42.40
2019-02-26T06:26:22.194Z,51.40
2019-02-26T06:29:13.765Z,51.20
2019-02-26T06:32:12.131Z,50.13
2019-02-26T06:35:06.114Z,48.80
2019-02-26T06:37:56.685Z,51.80
2019-02-26T06:40:49.021Z,39.83
2019-02-26T06:43:45.016Z,38.57
2019-02-26T06:46:35.965Z,43.33
2019-02-26T06:49:28.994Z,39.93
2019-02-26T06:52:20.973Z,38.43
2019-02-26T06:55:12.592Z,43.60
2019-02-26T06:58:25.418Z,45.53
2019-02-26T07:01:18.836Z,42.47
2019-02-26T07:04:12.918Z,39.43
2019-02-26T07:07:06.808Z,51.57
2019-02-26T07:09:58.366Z,40.93
2019-02-26T07:12:50.618Z,41.13
2019-02-26T07:15:42.980Z,39.77
2019-02-26T07:18:35.326Z,34.10
2019-02-26T07:21:27.596Z,39.43
2019-02-26T07:24:20.679Z,37.90
2019-02-26T07:27:13.917Z,37.77
2019-02-26T07:30:06.092Z,32.87
2019-02-26T07:32:57.647Z,42.13
2019-02-26T07:35:49.124Z,27.57
2019-02-26T07:38:41.576Z,24.97
2019-02-26T07:41:33.459Z,26.90
2019-02-26T07:44:27.916Z,32.87
2019-02-26T07:47:18.180Z,28.20
2019-02-26T07:50:12.275Z,31.10
2019-02-26T07:53:02.681Z,32.60
2019-02-26T07:55:56.330Z,38.33
2019-02-26T07:58:48.138Z,38.13
2019-02-26T08:01:40.443Z,40.23
2019-02-26T08:04:34.510Z,36.13
2019-02-26T08:07:28.429Z,35.37
2019-02-26T08:10:19.930Z,40.37
2019-02-26T08:13:12.002Z,44.57
2019-02-26T08:16:05.146Z,35.40
2019-02-26T08:18:58.830Z,32.43
2019-02-26T08:21:50.824Z,34.83
2019-02-26T08:24:45.543Z,29.77
2019-02-26T08:27:37.884Z,34.63
2019-02-26T08:30:30.995Z,31.33
2019-02-26T08:33:22.423Z,34.90
2019-02-26T08:36:14.219Z,43.33
2019-02-26T08:39:07.891Z,41.70
2019-02-26T08:42:08.894Z,29.27
2019-02-26T08:45:00.362Z,25.83
2019-02-26T08:47:51.985Z,35.37
2019-02-26T08:50:43.979Z,26.57
2019-02-26T08:53:36.495Z,31.07
2019-02-26T08:56:28.305Z,42.23
2019-02-26T08:59:20.887Z,30.57
2019-02-26T09:02:12.667Z,25.20
2019-02-26T09:05:04.987Z,30.20
2019-02-26T09:07:57.185Z,35.23
2019-02-26T09:10:48.822Z,22.90
2019-02-26T09:13:41.170Z,28.57
2019-02-26T09:16:33.595Z,34.60
2019-02-26T09:19:27.380Z,27.25
2019-02-26T09:22:21.043Z,19.92
2019-02-26T09:25:12.193Z,21.97
2019-02-26T09:28:04.641Z,22.15
2019-02-26T09:30:58.461Z,23.75
2019-02-26T09:33:49.448Z,17.67
2019-02-26T09:36:41.046Z,23.90
2019-02-26T09:39:35.998Z,26.57
2019-02-26T09:42:27.748Z,26.45
2019-02-26T09:45:22.452Z,21.77
2019-02-26T09:48:14.644Z,25.32
2019-02-26T09:51:07.601Z,28.75
2019-02-26T09:53:59.012Z,16.32
2019-02-26T09:56:50.662Z,26.15
2019-02-26T09:59:42.243Z,21.90
2019-02-26T10:02:34.044Z,24.93
2019-02-26T10:05:25.367Z,32.57
2019-02-26T10:08:19.358Z,33.47
2019-02-26T10:11:09.870Z,28.00
2019-02-26T10:14:02.825Z,25.33
2019-02-26T10:16:56.890Z,31.07
2019-02-26T10:19:48.263Z,24.30
2019-02-26T10:22:40.481Z,28.37
2019-02-26T10:25:34.836Z,21.77
2019-02-26T10:28:25.789Z,22.10
2019-02-26T10:31:17.449Z,21.97
2019-02-26T10:34:12.441Z,22.83
2019-02-26T10:37:02.336Z,15.93
2019-02-26T10:39:55.060Z,14.10
2019-02-26T10:42:46.858Z,21.37
2019-02-26T10:45:41.614Z,16.27
2019-02-26T10:48:31.618Z,16.13
2019-02-26T10:51:26.014Z,15.90
2019-02-26T10:54:18.072Z,19.07
2019-02-26T10:57:11.308Z,17.87
2019-02-26T11:00:06.367Z,25.87
2019-02-26T11:02:58.530Z,19.67
2019-02-26T11:05:52.083Z,21.50
2019-02-26T11:08:43.744Z,15.70
2019-02-26T11:11:38.164Z,22.67
2019-02-26T11:14:31.012Z,16.80
2019-02-26T11:17:23.660Z,15.73
2019-02-26T11:20:15.095Z,16.33
2019-02-26T11:23:08.998Z,15.03
2019-02-26T16:48:28.593Z,23.50
2019-02-26T16:51:21.796Z,25.73
2019-02-26T16:54:13.140Z,17.37
2019-02-26T16:57:04.830Z,25.03
2019-02-26T16:59:56.234Z,32.10
2019-02-26T17:02:47.831Z,29.93
2019-02-26T17:05:40.798Z,26.23
2019-02-26T17:08:32.659Z,29.13
2019-02-26T17:11:25.172Z,34.10
2019-02-26T17:14:17.384Z,25.57
2019-02-26T17:17:09.438Z,27.80
2019-02-26T17:20:00.788Z,18.80
2019-02-26T17:22:52.776Z,26.57
2019-02-26T17:25:45.081Z,26.00
2019-02-26T17:28:36.467Z,28.70
2019-02-26T17:31:28.696Z,26.97
2019-02-26T17:34:23.444Z,29.40
2019-02-26T17:37:15.082Z,44.10
2019-02-26T17:40:07.871Z,26.97
2019-02-26T17:42:59.993Z,31.40
2019-02-26T17:45:51.413Z,26.83
2019-02-26T17:48:43.730Z,26.17
2019-02-26T17:51:35.689Z,24.70
2019-02-26T17:54:27.336Z,34.60
2019-02-26T17:57:18.714Z,37.67
2019-02-26T18:00:13.261Z,25.13
2019-02-26T18:03:07.231Z,33.90
2019-02-26T18:05:57.885Z,39.57
2019-02-26T18:08:49.285Z,33.63
2019-02-26T18:11:40.699Z,45.17
2019-02-26T18:14:33.052Z,35.67
2019-02-26T18:17:24.431Z,26.40
2019-02-26T18:20:18.138Z,27.47
2019-02-26T18:23:09.913Z,24.63
2019-02-26T18:26:01.930Z,19.27
2019-02-26T18:28:53.696Z,35.03
2019-02-26T18:31:45.197Z,35.07
2019-02-26T18:34:36.906Z,29.30
2019-02-26T18:37:29.323Z,30.60
2019-02-26T18:40:20.903Z,37.13
2019-02-26T18:43:14.355Z,28.67
2019-02-26T18:46:06.989Z,30.73
2019-02-26T18:48:58.834Z,49.77
2019-02-26T18:51:51.457Z,41.20
2019-02-26T18:54:43.228Z,40.30
2019-02-26T18:57:34.499Z,38.73
2019-02-26T19:00:26.801Z,23.90
2019-02-26T19:03:18.627Z,49.33
2019-02-26T19:06:10.911Z,45.83
2019-02-26T19:09:02.384Z,48.63
2019-02-26T19:11:57.768Z,36.57
2019-02-26T19:14:48.998Z,38.60
2019-02-26T19:17:41.011Z,47.70
2019-02-26T19:20:32.855Z,38.40
2019-02-26T19:23:24.362Z,48.43
2019-02-26T19:26:16.665Z,40.70
2019-02-26T19:29:10.083Z,44.50
2019-02-26T19:32:02.010Z,57.00
2019-02-26T19:34:53.433Z,54.90
2019-02-26T19:37:45.189Z,55.17
2019-02-26T19:40:40.504Z,52.13
2019-02-26T19:43:32.907Z,50.83
2019-02-26T19:46:24.283Z,50.67
2019-02-26T19:49:15.814Z,39.70
2019-02-26T19:52:07.928Z,38.03
2019-02-26T19:54:59.411Z,32.50
2019-02-26T19:57:51.199Z,32.47
2019-02-26T20:00:42.479Z,33.27
2019-02-26T20:03:40.042Z,35.97
2019-02-26T20:06:27.062Z,37.60
2019-02-26T20:09:19.105Z,43.27
2019-02-26T20:12:10.655Z,35.43
2019-02-26T20:15:03.038Z,54.73
2019-02-26T20:17:55.533Z,45.00
2019-02-26T20:20:48.069Z,52.70
2019-02-26T20:23:41.988Z,53.60
2019-02-26T20:26:33.843Z,57.70
2019-02-26T20:29:27.298Z,45.70
2019-02-26T20:32:18.894Z,47.93
2019-02-26T20:35:12.616Z,52.17
2019-02-26T20:38:04.461Z,52.73
2019-02-26T20:40:56.149Z,51.67
2019-02-26T20:43:47.659Z,50.50
2019-02-26T20:46:39.323Z,51.43
2019-02-26T20:49:30.939Z,57.17
2019-02-26T20:52:22.742Z,58.83
2019-02-26T20:55:19.216Z,55.20
2019-02-26T20:58:12.425Z,51.10
2019-02-26T21:01:03.540Z,52.77
2019-02-26T21:03:55.031Z,62.23
2019-02-26T21:06:50.425Z,52.63
2019-02-26T21:09:40.788Z,54.53
2019-02-26T21:12:34.800Z,55.00
2019-02-26T21:15:27.196Z,52.90
2019-02-26T21:18:19.275Z,60.63
2019-02-26T21:21:11.729Z,55.10
2019-02-26T21:24:04.103Z,54.13
2019-02-26T21:26:56.167Z,42.80
2019-02-26T21:29:47.758Z,54.33
2019-02-26T21:32:39.122Z,54.37
2019-02-26T21:35:30.797Z,52.43
2019-02-26T21:38:22.008Z,52.50
2019-02-26T21:41:13.612Z,48.80
2019-02-26T21:44:08.766Z,52.47
2019-02-26T21:47:00.808Z,60.47
2019-02-26T21:49:52.304Z,51.97
2019-02-26T21:52:44.074Z,53.00
2019-02-26T21:55:43.877Z,60.13
2019-02-26T21:58:29.342Z,49.50
2019-02-26T22:01:20.748Z,55.60
2019-02-26T22:04:12.360Z,52.33
2019-02-26T22:07:03.907Z,50.20
2019-02-26T22:09:55.991Z,56.13
2019-02-26T22:12:47.686Z,50.60
2019-02-26T22:15:39.326Z,49.87
2019-02-26T22:18:33.966Z,53.97
2019-02-26T22:21:23.871Z,54.40
2019-02-26T22:24:15.492Z,59.93
2019-02-26T22:27:07.200Z,52.40
2019-02-26T22:29:58.513Z,59.50
2019-02-26T22:32:50.168Z,65.03
2019-02-26T22:35:41.581Z,54.87
2019-02-26T22:38:33.257Z,45.73
2019-02-26T22:41:25.036Z,47.67
2019-02-26T22:44:18.649Z,51.20
2019-02-26T22:47:09.715Z,50.97
2019-02-26T22:50:03.159Z,52.90
2019-02-26T22:52:54.436Z,52.87
2019-02-26T22:55:49.635Z,49.30
2019-02-26T22:58:40.239Z,47.87
2019-02-26T23:01:43.826Z,53.23
2019-02-26T23:04:36.210Z,53.67
